Time;durP1;ratioP1;P1;durP2;ratioP2;P2;SDS_P1;SDS_P2;PMS_P1;PMS_P2;Temp;Humidity;BMP_temperature;BMP_pressure;BME280_temperature;BME280_humidity;BME280_pressure;Samples;Min_cycle;Max_cycle;Signal;HPM_P1;HPM_P2
2023/10/30 00:02:10;;;;;;;7.03;1.50;;;11.30;99.90;;;;;;5043966;28;20025;-90
2023/10/30 00:04:36;;;;;;;9.77;1.58;;;11.30;99.90;;;;;;5047291;28;20488;-90
2023/10/30 00:07:02;;;;;;;7.10;1.60;;;11.30;99.90;;;;;;5031401;28;20033;-90
2023/10/30 00:09:28;;;;;;;8.38;1.40;;;11.30;99.90;;;;;;5026487;28;20744;-90
2023/10/30 00:11:54;;;;;;;10.00;1.50;;;11.30;99.90;;;;;;5046017;28;20029;-89
2023/10/30 00:14:20;;;;;;;11.63;1.80;;;11.30;99.90;;;;;;5042261;28;20057;-89
2023/10/30 00:16:45;;;;;;;7.70;2.13;;;11.30;99.90;;;;;;5029866;28;20076;-90
2023/10/30 00:19:11;;;;;;;11.63;1.80;;;11.30;99.90;;;;;;5022271;28;20030;-90
2023/10/30 00:21:38;;;;;;;8.20;1.38;;;11.30;99.90;;;;;;5034813;28;20021;-89
2023/10/30 00:24:04;;;;;;;12.05;1.70;;;11.30;99.90;;;;;;5018308;28;20071;-90
2023/10/30 00:26:29;;;;;;;7.13;1.30;;;11.30;99.90;;;;;;5029822;28;20468;-91
2023/10/30 00:28:57;;;;;;;7.35;1.50;;;11.40;99.90;;;;;;5020004;28;20049;-89
2023/10/30 00:31:23;;;;;;;6.68;1.80;;;11.40;99.90;;;;;;5030031;28;20479;-90
2023/10/30 00:33:49;;;;;;;7.85;1.92;;;11.40;99.90;;;;;;5021220;28;20124;-89
2023/10/30 00:36:14;;;;;;;7.63;1.42;;;11.40;99.90;;;;;;5050903;28;20100;-90
2023/10/30 00:38:40;;;;;;;8.05;1.42;;;11.40;99.90;;;;;;5034551;28;20052;-90
2023/10/30 00:41:10;;;;;;;6.30;1.35;;;11.40;99.90;;;;;;5033752;28;20026;-89
2023/10/30 00:43:37;;;;;;;7.40;1.50;;;11.40;99.90;;;;;;5049889;28;20022;-89
2023/10/30 00:46:06;;;;;;;11.50;1.50;;;11.40;99.90;;;;;;5050071;28;20096;-90
2023/10/30 00:48:33;;;;;;;10.63;1.85;;;11.30;99.90;;;;;;5032653;28;20049;-90
2023/10/30 00:50:59;;;;;;;7.90;1.67;;;11.40;99.90;;;;;;5025060;28;20029;-90
2023/10/30 00:53:25;;;;;;;8.88;2.30;;;11.40;99.90;;;;;;5034335;28;20472;-89
2023/10/30 00:55:51;;;;;;;8.52;1.77;;;11.40;99.90;;;;;;5047250;28;20366;-90
2023/10/30 00:58:17;;;;;;;6.95;1.50;;;11.40;99.90;;;;;;5036555;28;20600;-89
2023/10/30 01:00:43;;;;;;;8.63;1.65;;;11.50;99.90;;;;;;5026049;28;20074;-90
2023/10/30 01:03:08;;;;;;;10.05;1.50;;;11.50;99.90;;;;;;5023958;28;20476;-90
2023/10/30 01:05:34;;;;;;;9.05;1.83;;;11.50;99.90;;;;;;5047408;28;20029;-89
2023/10/30 01:08:00;;;;;;;8.82;1.50;;;11.50;99.90;;;;;;5022010;28;20053;-89
2023/10/30 01:10:26;;;;;;;8.20;1.63;;;11.50;99.90;;;;;;5049835;28;20504;-90
2023/10/30 01:12:52;;;;;;;6.82;1.73;;;11.60;99.90;;;;;;5049108;28;20029;-90
2023/10/30 01:15:17;;;;;;;11.80;1.60;;;11.60;99.90;;;;;;5029576;28;20061;-90
2023/10/30 01:17:43;;;;;;;5.68;1.30;;;11.60;99.90;;;;;;5046671;28;20061;-89
2023/10/30 01:20:09;;;;;;;7.32;1.45;;;11.60;99.90;;;;;;5032001;28;20040;-89
2023/10/30 01:22:35;;;;;;;9.18;1.38;;;11.60;99.90;;;;;;5049492;28;20499;-90
2023/10/30 01:25:00;;;;;;;8.98;1.67;;;11.60;99.90;;;;;;5033315;28;20055;-89
2023/10/30 01:27:26;;;;;;;8.23;1.60;;;11.50;99.90;;;;;;5049174;28;20063;-89
2023/10/30 01:29:53;;;;;;;7.60;1.17;;;11.60;99.90;;;;;;5049144;28;20033;-89
2023/10/30 01:32:18;;;;;;;11.48;1.42;;;11.60;99.90;;;;;;5048750;28;20370;-89
2023/10/30 01:34:44;;;;;;;10.35;1.52;;;11.60;99.90;;;;;;5021515;28;20027;-89
2023/10/30 01:37:10;;;;;;;6.07;1.33;;;11.70;99.90;;;;;;5032097;28;20052;-89
2023/10/30 01:39:39;;;;;;;7.32;1.40;;;11.70;99.90;;;;;;5033727;28;20027;-90
2023/10/30 01:42:05;;;;;;;8.15;1.27;;;11.80;99.90;;;;;;5024465;28;20028;-90
2023/10/30 01:44:30;;;;;;;12.27;2.28;;;11.80;99.90;;;;;;5024037;28;20458;-89
2023/10/30 01:46:56;;;;;;;9.50;1.35;;;11.80;99.90;;;;;;5032732;28;20049;-90
2023/10/30 01:49:22;;;;;;;8.45;1.50;;;11.70;99.90;;;;;;5049871;28;20515;-89
2023/10/30 01:51:48;;;;;;;7.60;1.42;;;11.80;99.90;;;;;;5033071;28;20034;-89
2023/10/30 01:54:14;;;;;;;8.00;1.50;;;11.70;99.90;;;;;;5033466;28;20030;-90
2023/10/30 01:56:40;;;;;;;8.18;1.40;;;11.70;99.90;;;;;;5032825;28;20052;-89
2023/10/30 01:59:07;;;;;;;9.63;1.60;;;11.70;99.90;;;;;;5048136;28;20021;-90
2023/10/30 02:01:38;;;;;;;7.38;1.40;;;11.70;99.90;;;;;;5025519;28;20030;-90
2023/10/30 02:04:04;;;;;;;8.45;1.48;;;11.70;99.90;;;;;;5025377;28;20542;-90
2023/10/30 02:06:30;;;;;;;7.13;1.67;;;11.70;99.90;;;;;;5032786;28;20508;-89
2023/10/30 02:08:57;;;;;;;5.03;1.48;;;11.60;99.90;;;;;;5047033;28;20030;-90
2023/10/30 02:11:22;;;;;;;12.57;2.00;;;11.60;99.90;;;;;;5033249;28;20034;-89
2023/10/30 02:13:55;;;;;;;7.20;1.65;;;11.60;99.90;;;;;;5021579;28;20393;-89
2023/10/30 02:16:21;;;;;;;8.70;1.70;;;11.60;99.90;;;;;;5043433;28;20022;-89
2023/10/30 02:18:47;;;;;;;9.43;1.63;;;11.50;99.90;;;;;;5034274;28;20022;-89
2023/10/30 02:21:12;;;;;;;15.25;3.17;;;11.40;99.90;;;;;;5047654;28;20041;-89
2023/10/30 02:23:38;;;;;;;11.18;1.70;;;11.40;99.90;;;;;;5048521;28;20598;-89
2023/10/30 02:26:03;;;;;;;7.13;1.75;;;11.40;99.90;;;;;;5031512;28;20044;-89
2023/10/30 02:28:29;;;;;;;6.22;1.40;;;11.30;99.90;;;;;;5044213;28;20049;-89
2023/10/30 02:30:55;;;;;;;9.95;2.00;;;11.30;99.90;;;;;;5033561;28;20099;-90
2023/10/30 02:33:20;;;;;;;7.32;1.50;;;11.30;99.90;;;;;;5048653;28;20033;-90
2023/10/30 02:35:46;;;;;;;8.15;1.50;;;11.30;99.90;;;;;;5024110;28;20431;-90
2023/10/30 02:38:12;;;;;;;9.73;1.48;;;11.20;99.90;;;;;;5045837;28;20026;-90
2023/10/30 02:40:37;;;;;;;8.30;1.67;;;11.20;99.90;;;;;;5023972;28;20488;-90
2023/10/30 02:43:03;;;;;;;7.20;1.35;;;11.20;99.90;;;;;;5019383;28;20409;-90
2023/10/30 02:45:29;;;;;;;5.43;1.45;;;11.20;99.90;;;;;;5037371;28;20080;-90
2023/10/30 02:47:54;;;;;;;14.48;2.20;;;11.20;99.90;;;;;;5041636;28;20145;-90
2023/10/30 02:50:20;;;;;;;8.68;1.80;;;11.20;99.90;;;;;;5033009;28;20116;-90
2023/10/30 02:52:45;;;;;;;9.65;1.30;;;11.30;99.90;;;;;;5024395;28;20033;-89
2023/10/30 02:55:11;;;;;;;12.75;1.90;;;11.30;99.90;;;;;;5047194;28;20029;-90
2023/10/30 02:57:37;;;;;;;9.70;1.90;;;11.30;99.90;;;;;;5047303;28;20025;-90
2023/10/30 03:00:03;;;;;;;10.93;2.03;;;11.40;99.90;;;;;;5023561;28;20026;-90
2023/10/30 03:02:29;;;;;;;10.13;1.60;;;11.40;99.90;;;;;;5031272;28;20036;-89
2023/10/30 03:04:55;;;;;;;11.70;2.58;;;11.40;99.90;;;;;;5019092;28;20022;-90
2023/10/30 03:07:21;;;;;;;10.52;1.95;;;11.40;99.90;;;;;;5020403;28;20025;-89
2023/10/30 03:09:46;;;;;;;7.72;2.17;;;11.40;99.90;;;;;;5020107;28;20037;-89
2023/10/30 03:12:12;;;;;;;8.43;1.42;;;11.40;99.90;;;;;;5022853;28;20022;-89
2023/10/30 03:14:38;;;;;;;7.57;1.40;;;11.40;99.90;;;;;;5047118;28;20040;-90
2023/10/30 03:17:04;;;;;;;8.73;1.27;;;11.40;99.90;;;;;;5046417;28;20022;-91
2023/10/30 03:19:29;;;;;;;6.63;1.20;;;11.40;99.90;;;;;;5031916;28;20040;-89
2023/10/30 03:21:55;;;;;;;12.23;1.65;;;11.40;99.90;;;;;;5031639;28;20037;-90
2023/10/30 03:24:21;;;;;;;11.65;1.58;;;11.50;99.90;;;;;;5044093;28;20022;-90
2023/10/30 03:26:47;;;;;;;9.48;1.52;;;11.50;99.90;;;;;;5042663;28;20025;-89
2023/10/30 03:29:13;;;;;;;7.65;1.83;;;;;;;;;;5043850;28;20144;-89
2023/10/30 03:31:38;;;;;;;10.35;1.75;;;11.50;99.90;;;;;;5045211;28;20432;-90
2023/10/30 03:34:04;;;;;;;6.20;1.30;;;11.40;99.90;;;;;;5023923;28;20072;-89
2023/10/30 03:36:30;;;;;;;5.28;1.60;;;11.40;99.90;;;;;;5032301;28;20028;-90
2023/10/30 03:38:55;;;;;;;9.93;1.65;;;11.40;99.90;;;;;;5031802;28;20032;-90
2023/10/30 03:41:21;;;;;;;9.70;2.20;;;11.40;99.90;;;;;;5044970;28;20022;-89
2023/10/30 03:43:47;;;;;;;7.00;1.50;;;11.40;99.90;;;;;;5031785;28;20022;-91
2023/10/30 03:46:12;;;;;;;13.63;2.15;;;11.40;99.90;;;;;;5043539;28;20049;-90
2023/10/30 03:48:38;;;;;;;8.07;1.95;;;11.40;99.90;;;;;;5017024;28;20500;-89
2023/10/30 03:51:05;;;;;;;11.55;2.58;;;11.40;99.90;;;;;;5047468;28;20507;-90
2023/10/30 03:53:31;;;;;;;9.00;1.35;;;11.40;99.90;;;;;;5033208;28;20049;-90
2023/10/30 03:55:57;;;;;;;9.02;1.85;;;11.40;99.90;;;;;;5021510;28;20111;-90
2023/10/30 03:58:23;;;;;;;6.97;1.58;;;11.40;99.90;;;;;;5046853;28;20503;-89
2023/10/30 04:00:49;;;;;;;11.13;2.13;;;11.40;99.90;;;;;;5031737;28;20127;-89
2023/10/30 04:03:14;;;;;;;13.82;2.08;;;11.40;99.90;;;;;;5047076;28;20061;-88
2023/10/30 04:05:41;;;;;;;8.48;1.50;;;11.40;99.90;;;;;;5015305;28;20113;-88
2023/10/30 04:08:06;;;;;;;10.93;1.50;;;11.40;99.90;;;;;;5044183;28;20103;-89
2023/10/30 04:10:32;;;;;;;7.15;1.50;;;11.40;99.90;;;;;;5036505;28;20435;-89
2023/10/30 04:12:58;;;;;;;11.20;1.80;;;11.50;99.90;;;;;;5050522;28;20033;-89
2023/10/30 04:15:23;;;;;;;8.02;1.70;;;11.50;99.90;;;;;;5026421;28;20026;-89
2023/10/30 04:17:50;;;;;;;6.38;1.60;;;11.50;99.90;;;;;;5051039;28;20037;-89
2023/10/30 04:20:16;;;;;;;10.48;2.13;;;11.50;99.90;;;;;;5050788;28;20439;-90
2023/10/30 04:22:41;;;;;;;8.85;1.67;;;11.40;99.90;;;;;;5035145;28;20071;-88
2023/10/30 04:25:08;;;;;;;9.07;1.50;;;11.40;99.90;;;;;;5036118;28;20021;-88
2023/10/30 04:27:34;;;;;;;9.43;2.05;;;11.40;99.90;;;;;;5050145;28;20547;-88
2023/10/30 04:30:00;;;;;;;9.52;1.58;;;11.40;99.90;;;;;;5026407;28;20030;-89
2023/10/30 04:32:26;;;;;;;10.05;1.90;;;11.40;99.90;;;;;;5023385;28;20030;-89
2023/10/30 04:34:51;;;;;;;10.85;2.00;;;11.40;99.90;;;;;;5038763;28;20033;-89
2023/10/30 04:37:19;;;;;;;7.93;1.70;;;11.40;99.90;;;;;;5030810;28;20034;-88
2023/10/30 04:39:45;;;;;;;11.23;2.30;;;;;;;;;;5035254;28;20152;-88
2023/10/30 04:42:11;;;;;;;6.30;1.50;;;11.30;99.90;;;;;;5050742;28;20025;-88
2023/10/30 04:44:37;;;;;;;6.25;1.58;;;11.30;99.90;;;;;;5049303;28;20026;-89
2023/10/30 04:47:04;;;;;;;9.57;1.60;;;11.30;99.90;;;;;;5039042;28;20118;-89
2023/10/30 04:49:34;;;;;;;11.20;1.70;;;11.40;99.90;;;;;;5055734;28;20029;-89
2023/10/30 04:52:00;;;;;;;;;;;11.40;99.90;;;;;;5031335;28;20087;-89
2023/10/30 04:54:25;;;;;;;7.43;1.58;;;11.40;99.90;;;;;;5054359;28;19905;-89
2023/10/30 04:56:51;;;;;;;5.25;1.40;;;11.40;99.90;;;;;;5053245;28;20056;-88
2023/10/30 04:59:17;;;;;;;10.15;2.13;;;11.40;99.90;;;;;;5051182;28;20461;-89
2023/10/30 05:01:42;;;;;;;11.85;2.03;;;11.30;99.90;;;;;;5054451;28;20037;-88
2023/10/30 05:04:08;;;;;;;11.80;1.75;;;11.30;99.90;;;;;;5052924;28;20025;-88
2023/10/30 05:06:34;;;;;;;12.20;1.75;;;11.20;99.90;;;;;;5053241;28;20027;-90
2023/10/30 05:08:59;;;;;;;10.35;1.70;;;11.20;99.90;;;;;;5052961;28;20025;-89
2023/10/30 05:11:25;;;;;;;9.88;1.80;;;11.20;99.90;;;;;;5034073;28;20028;-89
2023/10/30 05:13:51;;;;;;;9.07;1.75;;;11.20;99.90;;;;;;5024954;28;20033;-89
2023/10/30 05:16:16;;;;;;;11.18;2.30;;;11.20;99.90;;;;;;5029144;28;20404;-89
2023/10/30 05:18:42;;;;;;;7.80;1.50;;;11.20;99.90;;;;;;5054585;28;20025;-89
2023/10/30 05:21:07;;;;;;;12.52;2.10;;;11.20;99.90;;;;;;5052160;28;20018;-89
2023/10/30 05:23:33;;;;;;;7.15;2.00;;;11.20;99.90;;;;;;5029876;28;20104;-89
2023/10/30 05:25:59;;;;;;;8.57;1.50;;;11.20;99.90;;;;;;5027941;28;20021;-89
2023/10/30 05:28:25;;;;;;;9.20;2.03;;;11.20;99.90;;;;;;5054914;28;20086;-89
2023/10/30 05:30:50;;;;;;;8.55;1.70;;;11.10;99.90;;;;;;5029303;28;20074;-89
2023/10/30 05:33:16;;;;;;;8.38;1.75;;;11.20;99.90;;;;;;5054346;28;20063;-89
2023/10/30 05:35:42;;;;;;;6.15;1.70;;;11.20;99.90;;;;;;5054788;28;20025;-88
2023/10/30 05:38:08;;;;;;;8.15;2.40;;;11.10;99.90;;;;;;5053898;28;20036;-89
2023/10/30 05:40:34;;;;;;;8.48;1.83;;;;;;;;;;5050387;28;20070;-89
2023/10/30 05:43:00;;;;;;;8.00;1.92;;;11.10;99.90;;;;;;5036038;28;20036;-89
2023/10/30 05:45:25;;;;;;;10.43;1.70;;;11.10;99.90;;;;;;5055207;28;20021;-87
2023/10/30 05:47:51;;;;;;;9.73;2.22;;;;;;;;;;5048997;28;20049;-89
2023/10/30 05:50:17;;;;;;;11.35;1.98;;;11.10;99.90;;;;;;5024998;28;20082;-90
2023/10/30 05:52:43;;;;;;;7.00;1.63;;;11.20;99.90;;;;;;5024373;28;20121;-89
2023/10/30 05:55:08;;;;;;;12.13;2.25;;;11.20;99.90;;;;;;5029171;28;20480;-90
2023/10/30 05:57:35;;;;;;;7.93;1.42;;;11.20;99.90;;;;;;5025224;28;20108;-89
2023/10/30 06:00:01;;;;;;;6.00;1.65;;;11.20;99.90;;;;;;5051452;28;20380;-90
2023/10/30 06:02:27;;;;;;;8.38;1.70;;;11.20;99.90;;;;;;5028676;28;20017;-89
2023/10/30 06:04:52;;;;;;;10.90;1.90;;;11.20;99.90;;;;;;5052774;28;20477;-89
2023/10/30 06:07:18;;;;;;;7.15;1.80;;;11.20;99.90;;;;;;5049495;28;20090;-89
2023/10/30 06:09:45;;;;;;;25.15;2.10;;;11.20;99.90;;;;;;5049226;28;20083;-89
2023/10/30 06:12:10;;;;;;;7.80;2.00;;;11.10;99.90;;;;;;5049976;28;20099;-89
2023/10/30 06:14:36;;;;;;;7.50;1.90;;;11.10;99.90;;;;;;5031968;28;20038;-89
2023/10/30 06:17:02;;;;;;;9.95;1.73;;;11.10;99.90;;;;;;5050428;28;20032;-89
2023/10/30 06:19:28;;;;;;;8.93;1.67;;;11.10;99.90;;;;;;5051350;28;20060;-89
2023/10/30 06:21:54;;;;;;;12.70;2.20;;;11.10;99.90;;;;;;5051188;28;20029;-89
2023/10/30 06:24:19;;;;;;;7.22;1.80;;;11.10;99.90;;;;;;5033828;28;20028;-88
2023/10/30 06:26:45;;;;;;;13.05;2.20;;;11.10;99.90;;;;;;5033434;28;20025;-89
2023/10/30 06:29:11;;;;;;;9.70;1.88;;;11.00;99.90;;;;;;5046175;28;20020;-89
2023/10/30 06:31:36;;;;;;;10.55;2.05;;;11.00;99.90;;;;;;5047903;28;20047;-89
2023/10/30 06:34:02;;;;;;;10.40;1.88;;;11.10;99.90;;;;;;5033012;28;20087;-89
2023/10/30 06:36:28;;;;;;;7.80;1.80;;;11.10;99.90;;;;;;5049211;28;20500;-89
2023/10/30 06:38:55;;;;;;;8.88;1.70;;;11.00;99.90;;;;;;5030920;28;20026;-89
2023/10/30 06:41:21;;;;;;;11.73;1.90;;;11.10;99.90;;;;;;5046634;28;20017;-89
2023/10/30 06:43:46;;;;;;;10.35;2.05;;;11.00;99.90;;;;;;5029711;28;20447;-89
2023/10/30 06:46:12;;;;;;;7.75;2.00;;;11.00;99.90;;;;;;5045144;28;20503;-89
2023/10/30 06:48:38;;;;;;;12.32;1.70;;;11.00;99.90;;;;;;5043112;28;20044;-88
2023/10/30 06:51:04;;;;;;;5.45;1.50;;;11.00;99.90;;;;;;5049836;28;20044;-89
2023/10/30 06:53:29;;;;;;;8.88;1.98;;;11.00;99.90;;;;;;5033854;28;20036;-88
2023/10/30 06:55:55;;;;;;;7.88;2.47;;;11.00;99.90;;;;;;5047422;28;20116;-89
2023/10/30 06:58:23;;;;;;;6.95;1.83;;;10.90;99.90;;;;;;5052189;28;20485;-89
2023/10/30 07:00:50;;;;;;;11.57;1.80;;;10.90;99.90;;;;;;5049996;28;20020;-88
2023/10/30 07:03:16;;;;;;;11.98;2.45;;;;;;;;;;5047109;28;20025;-90
2023/10/30 07:05:42;;;;;;;12.60;2.72;;;;;;;;;;5030028;28;20026;-88
2023/10/30 07:08:08;;;;;;;10.95;2.72;;;;;;;;;;5027112;28;20047;-88
2023/10/30 07:10:35;;;;;;;11.88;2.13;;;;;;;;;;5049885;28;20021;-88
2023/10/30 07:13:01;;;;;;;9.77;2.03;;;;;;;;;;5030531;28;20024;-88
2023/10/30 07:15:27;;;;;;;12.05;2.53;;;10.80;99.90;;;;;;5047103;28;20690;-88
2023/10/30 07:17:57;;;;;;;9.88;2.08;;;10.80;99.90;;;;;;5026937;28;20128;-88
2023/10/30 07:20:23;;;;;;;12.20;2.70;;;10.70;99.90;;;;;;5045501;28;20070;-88
2023/10/30 07:22:49;;;;;;;9.32;2.30;;;;;;;;;;5044106;28;20032;-88
2023/10/30 07:25:15;;;;;;;13.85;2.42;;;10.70;99.90;;;;;;5027928;28;20388;-87
2023/10/30 07:27:41;;;;;;;10.48;2.53;;;10.70;99.90;;;;;;5028370;28;20021;-88
2023/10/30 07:30:08;;;;;;;20.52;2.67;;;10.70;99.90;;;;;;5034242;28;20070;-89
2023/10/30 07:32:34;;;;;;;12.52;2.50;;;10.70;99.90;;;;;;5023358;28;20090;-89
2023/10/30 07:35:00;;;;;;;11.30;2.60;;;10.70;99.90;;;;;;5045918;28;20025;-88
2023/10/30 07:37:27;;;;;;;11.77;2.67;;;10.80;99.90;;;;;;5046531;28;20025;-88
2023/10/30 07:39:53;;;;;;;11.88;2.75;;;10.70;99.90;;;;;;5041987;28;20033;-89
2023/10/30 07:42:18;;;;;;;10.27;2.25;;;10.80;99.90;;;;;;5044031;28;20025;-89
2023/10/30 07:44:44;;;;;;;12.45;2.20;;;10.80;99.90;;;;;;5046627;28;20056;-88
2023/10/30 07:47:10;;;;;;;13.63;2.72;;;10.80;99.90;;;;;;5048475;28;20084;-88
2023/10/30 07:49:35;;;;;;;12.35;2.35;;;10.80;99.90;;;;;;5047590;28;20606;-89
2023/10/30 07:52:01;;;;;;;8.85;2.25;;;10.90;99.90;;;;;;5043674;28;20507;-88
2023/10/30 07:54:26;;;;;;;5.60;2.08;;;11.00;99.90;;;;;;5050427;28;20041;-89
2023/10/30 07:56:52;;;;;;;11.55;3.10;;;11.10;99.90;;;;;;5042205;28;20029;-88
2023/10/30 07:59:18;;;;;;;11.63;2.88;;;11.10;99.90;;;;;;5048797;28;20036;-89
2023/10/30 08:01:45;;;;;;;12.77;2.70;;;11.20;99.90;;;;;;5046730;28;20022;-88
2023/10/30 08:04:10;;;;;;;9.68;2.88;;;11.30;99.90;;;;;;5049728;28;20025;-88
2023/10/30 08:06:36;;;;;;;12.85;2.67;;;11.40;99.90;;;;;;5025236;28;20048;-88
2023/10/30 08:09:03;;;;;;;22.70;4.68;;;11.30;99.90;;;;;;5050553;28;20084;-88
2023/10/30 08:11:28;;;;;;;6.60;2.17;;;11.40;99.90;;;;;;5025831;28;20030;-89
2023/10/30 08:13:54;;;;;;;7.72;2.80;;;11.50;99.90;;;;;;5033684;28;20039;-88
2023/10/30 08:16:19;;;;;;;12.43;3.13;;;11.60;99.90;;;;;;5047242;28;20021;-88
2023/10/30 08:18:46;;;;;;;8.70;2.38;;;11.70;99.90;;;;;;5050531;28;20029;-89
2023/10/30 08:21:13;;;;;;;8.95;2.63;;;11.90;99.90;;;;;;5027471;28;20036;-87
2023/10/30 08:23:39;;;;;;;8.77;2.65;;;12.00;99.90;;;;;;5050504;28;20714;-88
2023/10/30 08:26:06;;;;;;;11.32;2.45;;;12.10;99.90;;;;;;5040088;28;20021;-88
2023/10/30 08:28:31;;;;;;;9.32;2.47;;;12.10;99.90;;;;;;5039405;28;20123;-88
2023/10/30 08:30:57;;;;;;;9.90;2.17;;;12.30;99.90;;;;;;5040452;28;20076;-88
2023/10/30 08:33:23;;;;;;;9.75;2.60;;;12.60;99.90;;;;;;5050019;28;20129;-88
2023/10/30 08:35:49;;;;;;;7.68;2.30;;;12.80;99.90;;;;;;5043987;28;20116;-90
2023/10/30 08:38:14;;;;;;;8.07;2.60;;;13.20;99.90;;;;;;5044308;28;20040;-90
2023/10/30 08:40:40;;;;;;;6.82;2.60;;;13.50;99.90;;;;;;5023151;28;20021;-88
2023/10/30 08:43:06;;;;;;;6.10;1.75;;;13.60;99.90;;;;;;5046415;28;20032;-88
2023/10/30 08:45:32;;;;;;;9.50;2.30;;;13.80;99.90;;;;;;5045347;28;20025;-90
2023/10/30 08:47:57;;;;;;;8.13;1.90;;;13.90;99.90;;;;;;5024119;28;20495;-90
2023/10/30 08:50:23;;;;;;;6.00;1.65;;;14.00;99.90;;;;;;5048836;28;20037;-89
2023/10/30 08:52:48;;;;;;;5.35;2.25;;;14.30;99.90;;;;;;5050980;28;20101;-89
2023/10/30 08:55:14;;;;;;;7.18;1.80;;;14.40;99.90;;;;;;5051528;28;20056;-89
2023/10/30 08:57:40;;;;;;;8.48;1.85;;;14.60;99.90;;;;;;5044366;28;20036;-88
2023/10/30 09:00:06;;;;;;;6.30;1.80;;;14.60;99.90;;;;;;5052363;28;20021;-88
2023/10/30 09:02:33;;;;;;;5.70;1.98;;;14.70;99.90;;;;;;5052489;28;20045;-88
2023/10/30 09:04:58;;;;;;;6.13;1.95;;;14.90;99.90;;;;;;5028056;28;20026;-89
2023/10/30 09:07:24;;;;;;;5.40;1.60;;;15.30;99.90;;;;;;5044849;28;20499;-89
2023/10/30 09:09:50;;;;;;;6.07;1.50;;;15.50;99.90;;;;;;5055938;28;20036;-88
2023/10/30 09:12:17;;;;;;;5.43;1.60;;;15.50;99.90;;;;;;5052894;28;20028;-88
2023/10/30 09:14:42;;;;;;;5.90;1.98;;;15.30;99.90;;;;;;5052804;28;20039;-89
2023/10/30 09:17:09;;;;;;;8.73;2.03;;;15.10;99.90;;;;;;5051745;28;20037;-88
2023/10/30 09:19:36;;;;;;;8.63;2.25;;;15.20;99.90;;;;;;5048847;28;20093;-88
2023/10/30 09:22:01;;;;;;;4.55;1.23;;;15.10;99.90;;;;;;5052153;28;20028;-88
2023/10/30 09:24:27;;;;;;;3.58;1.30;;;15.00;99.90;;;;;;5051518;28;20021;-88
2023/10/30 09:26:53;;;;;;;6.03;1.85;;;15.00;99.90;;;;;;5051143;28;20032;-88
2023/10/30 09:29:18;;;;;;;6.93;1.67;;;15.10;99.90;;;;;;5027123;28;20055;-88
2023/10/30 09:31:44;;;;;;;6.18;1.40;;;15.10;99.90;;;;;;5051984;28;20036;-91
2023/10/30 09:34:10;;;;;;;4.72;1.48;;;15.30;99.90;;;;;;5051558;28;20025;-88
2023/10/30 09:36:36;;;;;;;3.70;1.17;;;15.50;99.90;;;;;;5027881;28;20512;-89
2023/10/30 09:39:01;;;;;;;5.05;1.38;;;15.50;99.90;;;;;;5027296;28;20056;-88
2023/10/30 09:41:28;;;;;;;5.00;1.58;;;15.40;99.90;;;;;;5030722;28;20033;-89
2023/10/30 09:43:54;;;;;;;5.05;1.50;;;15.40;99.90;;;;;;5051304;28;20112;-88
2023/10/30 09:46:27;;;;;;;4.28;1.42;;;15.70;99.90;;;;;;5051940;28;20996;-88
2023/10/30 09:48:54;;;;;;;4.40;1.50;;;16.00;99.90;;;;;;5049676;28;20056;-88
2023/10/30 09:51:21;;;;;;;5.03;1.30;;;16.20;99.90;;;;;;5033972;28;20108;-88
2023/10/30 09:53:48;;;;;;;6.68;1.77;;;16.10;99.90;;;;;;5052801;28;20040;-88
2023/10/30 09:56:16;;;;;;;5.90;1.20;;;16.10;99.90;;;;;;5033872;28;20119;-89
2023/10/30 09:58:42;;;;;;;3.80;1.10;;;16.00;99.90;;;;;;5052077;28;20550;-89
2023/10/30 10:01:08;;;;;;;5.15;1.40;;;16.20;99.90;;;;;;5051237;28;20040;-89
2023/10/30 10:03:33;;;;;;;4.13;1.10;;;16.40;99.90;;;;;;5052188;28;20025;-89
2023/10/30 10:06:00;;;;;;;5.00;1.40;;;16.40;99.90;;;;;;5052544;28;20198;-89
2023/10/30 10:08:26;;;;;;;4.22;1.20;;;16.30;99.60;;;;;;5022590;28;20052;-89
2023/10/30 10:11:00;;;;;;;4.20;1.17;;;16.20;99.90;;;;;;5037085;28;20504;-88
2023/10/30 10:13:28;;;;;;;4.43;1.30;;;16.10;99.90;;;;;;5052545;28;20096;-89
2023/10/30 10:15:54;;;;;;;3.90;1.42;;;16.00;99.90;;;;;;5052928;28;20136;-89
2023/10/30 10:18:34;;;;;;;4.97;1.20;;;16.10;99.90;;;;;;5022508;28;20034;-88
2023/10/30 10:21:05;;;;;;;5.43;1.30;;;16.50;99.90;;;;;;5023389;28;20021;-89
2023/10/30 10:23:33;;;;;;;6.15;1.30;;;16.80;99.80;;;;;;5027102;28;20102;-89
2023/10/30 10:26:06;;;;;;;5.20;1.50;;;17.00;97.70;;;;;;5049284;28;20025;-88
2023/10/30 10:28:33;;;;;;;4.35;1.17;;;17.00;98.50;;;;;;5022536;28;20047;-89
2023/10/30 10:30:59;;;;;;;6.07;1.15;;;17.00;98.90;;;;;;5027022;28;20090;-89
2023/10/30 10:33:29;;;;;;;4.60;1.25;;;17.10;98.00;;;;;;5048755;28;20052;-88
2023/10/30 10:36:03;;;;;;;5.00;1.27;;;17.40;97.00;;;;;;5049463;28;20416;-89
2023/10/30 10:38:29;;;;;;;4.90;1.38;;;17.70;95.20;;;;;;5050749;28;20044;-88
2023/10/30 10:40:56;;;;;;;3.22;1.08;;;17.90;94.70;;;;;;5050535;28;20028;-88
2023/10/30 10:43:24;;;;;;;3.88;1.13;;;18.40;93.00;;;;;;5050142;28;20488;-89
2023/10/30 10:45:52;;;;;;;5.68;1.20;;;18.90;93.60;;;;;;5032618;28;20024;-89
2023/10/30 10:48:19;;;;;;;4.78;1.00;;;19.80;90.80;;;;;;5051506;28;20053;-88
2023/10/30 10:50:45;;;;;;;3.10;1.08;;;20.50;82.80;;;;;;5050622;28;20035;-89
2023/10/30 10:53:12;;;;;;;4.50;1.20;;;21.00;82.40;;;;;;5025114;28;20500;-89
2023/10/30 10:55:46;;;;;;;4.32;1.30;;;21.30;78.40;;;;;;5030889;28;20029;-88
2023/10/30 10:58:17;;;;;;;3.85;1.15;;;21.30;78.50;;;;;;5046492;28;20041;-89
2023/10/30 11:00:50;;;;;;;2.05;0.80;;;20.90;77.70;;;;;;5047953;28;20075;-89
2023/10/30 11:03:17;;;;;;;1.98;0.63;;;21.00;77.30;;;;;;5049845;28;20163;-89
2023/10/30 11:05:45;;;;;;;2.25;0.80;;;20.90;78.90;;;;;;5022942;28;20033;-89
2023/10/30 11:08:23;;;;;;;4.03;1.00;;;21.30;75.20;;;;;;5026340;28;20025;-89
2023/10/30 11:10:55;;;;;;;3.00;0.90;;;20.50;77.20;;;;;;5033993;28;20122;-89
2023/10/30 11:13:51;;;;;;;4.97;1.15;;;19.60;84.10;;;;;;5050817;28;20096;-89
2023/10/30 11:16:21;;;;;;;1.92;0.88;;;18.90;87.70;;;;;;5047086;28;20039;-89
2023/10/30 11:18:52;;;;;;;4.15;0.95;;;18.20;90.80;;;;;;5050278;28;20068;-89
2023/10/30 11:21:22;;;;;;;2.60;0.90;;;17.80;91.90;;;;;;5050647;28;20440;-89
2023/10/30 11:23:57;;;;;;;4.30;1.00;;;17.60;92.10;;;;;;5050367;28;20121;-89
2023/10/30 11:26:43;;;;;;;4.20;1.13;;;17.60;94.50;;;;;;5048402;28;20479;-89
2023/10/30 11:29:10;;;;;;;2.67;0.93;;;18.10;93.20;;;;;;5040586;28;20084;-89
2023/10/30 11:31:55;;;;;;;2.30;1.00;;;18.60;91.80;;;;;;5047005;28;20041;-89
2023/10/30 11:34:28;;;;;;;3.30;1.00;;;18.90;90.80;;;;;;5040681;28;20120;-89
2023/10/30 11:36:58;;;;;;;2.20;0.80;;;19.10;90.70;;;;;;5049647;28;20017;-89
2023/10/30 11:39:24;;;;;;;4.40;1.30;;;19.30;90.10;;;;;;5043177;28;20029;-89
2023/10/30 11:41:52;;;;;;;1.95;0.80;;;19.50;85.30;;;;;;5031348;28;20607;-89
2023/10/30 11:44:18;;;;;;;3.05;0.82;;;19.50;85.40;;;;;;5046479;28;20047;-89
2023/10/30 11:46:46;;;;;;;1.48;0.80;;;19.60;89.20;;;;;;5047690;28;20433;-89
2023/10/30 11:49:17;;;;;;;2.05;0.70;;;20.10;82.80;;;;;;5047052;28;20182;-89
2023/10/30 11:51:46;;;;;;;2.22;0.70;;;20.80;81.90;;;;;;5029726;28;20574;-90
2023/10/30 11:54:12;;;;;;;1.63;0.60;;;21.80;75.20;;;;;;5045002;28;20052;-89
2023/10/30 11:56:38;;;;;;;5.32;0.73;;;22.20;74.50;;;;;;5044543;28;20116;-89
2023/10/30 11:59:04;;;;;;;1.45;0.70;;;22.00;75.20;;;;;;5021708;28;20142;-89
2023/10/30 12:01:32;;;;;;;2.90;0.93;;;21.70;74.20;;;;;;5047133;28;20045;-89
2023/10/30 12:03:59;;;;;;;1.33;0.70;;;21.10;76.20;;;;;;5047211;28;20435;-89
2023/10/30 12:06:25;;;;;;;1.30;0.47;;;20.50;78.20;;;;;;5047444;28;20023;-89
2023/10/30 12:08:51;;;;;;;3.90;0.80;;;20.10;81.70;;;;;;5048400;28;20063;-89
2023/10/30 12:11:17;;;;;;;2.03;0.70;;;19.60;84.20;;;;;;5034438;28;20025;-89
2023/10/30 12:13:45;;;;;;;3.35;0.70;;;19.40;87.40;;;;;;5050790;28;20037;-88
2023/10/30 12:16:11;;;;;;;2.42;0.90;;;18.90;86.60;;;;;;5050994;28;20021;-89
2023/10/30 12:18:37;;;;;;;1.92;0.90;;;18.30;90.90;;;;;;5021221;28;20033;-89
2023/10/30 12:21:04;;;;;;;2.72;0.90;;;17.90;91.70;;;;;;5049886;28;20040;-89
2023/10/30 12:23:31;;;;;;;2.28;0.70;;;17.50;92.70;;;;;;5049839;28;20032;-89
2023/10/30 12:26:06;;;;;;;3.33;0.75;;;17.20;94.60;;;;;;5048204;28;20480;-89
2023/10/30 12:28:38;;;;;;;2.72;0.80;;;16.90;96.50;;;;;;5017571;28;20036;-88
2023/10/30 12:31:20;;;;;;;2.42;0.80;;;16.70;96.60;;;;;;5054387;28;20044;-89
2023/10/30 12:33:47;;;;;;;1.90;0.70;;;16.50;98.50;;;;;;5047698;28;20026;-88
2023/10/30 12:36:13;;;;;;;3.80;0.90;;;16.40;97.80;;;;;;5049979;28;20029;-88
2023/10/30 12:38:39;;;;;;;1.80;0.70;;;16.30;99.40;;;;;;5051313;28;20029;-88
2023/10/30 12:41:07;;;;;;;3.05;1.00;;;16.30;99.90;;;;;;5055214;28;20025;-88
2023/10/30 12:43:44;;;;;;;1.50;0.80;;;16.40;99.50;;;;;;5053825;28;20040;-89
2023/10/30 12:46:10;;;;;;;2.47;0.80;;;16.50;99.90;;;;;;5052228;28;20116;-89